Wednesday, December 19, 2018, 12:33 AM EST
Back to Local

KACK, Nantucket Memorial Airport

Location: Nantucket, MA, United States Lat: 41.25
Local Time: 12:33 AM EST ( 5:33 GMT) Lon: -70.067
Time Zone: US/Eastern Elev: 49 ft

Show me the last for .
Show Decoded

2018-12-18 23:53 METAR KACK 190453Z AUTO 31013KT 10SM CLR M03/M10 A3001 RMK AO2 SLP163 T10281100
                 400391033 =
2018-12-18 22:53 METAR KACK 190353Z AUTO 32015G23KT 10SM CLR M02/M11 A3000 RMK AO2 PK WND
                 31027/0320 SLP159 T10221106 =
2018-12-18 21:53 METAR KACK 190253Z AUTO 31017G23KT 10SM CLR M02/M11 A3001 RMK AO2 PK WND
                 32026/0213 SLP160 T10221111 51008 =
2018-12-18 20:53 METAR KACK 190153Z 32019G29KT 10SM CLR M02/M11 A2999 RMK AO2 PK WND 32029/0132
                 SLP157 T10171111 =
2018-12-18 19:53 METAR KACK 190053Z 32022G30KT 10SM CLR M01/M11 A3000 RMK AO2 PK WND 32031/0032
                 SLP157 T10111111 =
2018-12-18 18:53 METAR KACK 182353Z 31018G26KT 10SM CLR M01/M11 A2998 RMK AO2 PK WND 30028/2317
                 SLP152 T10111111 10011 21011 53028 =
2018-12-18 17:53 METAR KACK 182253Z 30017G24KT 10SM CLR M01/M11 A2994 RMK AO2 SLP140 T10061106 =
2018-12-18 16:53 METAR KACK 182153Z 30015KT 10SM CLR M01/M10 A2992 RMK AO2 PK WND 32028/2121
                 SLP132 T10061100 =
2018-12-18 15:53 METAR KACK 182053Z 33018G29KT 10SM CLR 00/M11 A2990 RMK AO2 PK WND 33029/2048
                 SLP124 T00001111 53034 =
2018-12-18 14:53 METAR KACK 181953Z 31017G27KT 10SM CLR 01/M11 A2986 RMK AO2 PK WND 31027/1951
                 SLP110 T00061111 =
2018-12-18 13:53 METAR KACK 181853Z 32016G25KT 10SM CLR 01/M10 A2982 RMK AO2 PK WND 30026/1809
                 SLP098 T00111100 =
2018-12-18 12:53 METAR KACK 181753Z 32020G26KT 10SM CLR 01/M11 A2980 RMK AO2 PK WND 33027/1711
                 SLP090 T00061106 10006 21033 51010 =
2018-12-18 11:53 METAR KACK 181653Z 32016G28KT 10SM CLR 00/M11 A2980 RMK AO2 PK WND 35029/1624
                 SLP089 T00001106 =
2018-12-18 10:53 METAR KACK 181553Z 32022G30KT 10SM CLR M01/M11 A2978 RMK AO2 PK WND 33037/1519
                 SLP084 T10111111 =
2018-12-18 09:53 METAR KACK 181453Z 32023G31KT 10SM CLR M01/M11 A2977 RMK AO2 PK WND 32035/1437
                 SLP080 T10111111 51030 =
2018-12-18 08:53 METAR KACK 181353Z 32022G33KT 10SM CLR M02/M11 A2974 RMK AO2 PK WND 31038/1323
                 SLP072 T10221111 =
2018-12-18 07:53 METAR KACK 181253Z 31028G37KT 10SM CLR M03/M12 A2971 RMK AO2 PK WND 30039/1200
                 SLP060 T10281117 =
2018-12-18 06:53 METAR KACK 181153Z 31025G35KT 10SM CLR M03/M12 A2968 RMK AO2 PK WND 31040/1112
                 SLP050 60000 70001 T10331117 10039 21033 53036 =
2018-12-18 05:53 METAR KACK 181053Z AUTO 31025G40KT 10SM FEW038 FEW060 M02/M11 A2964 RMK AO2 PK
                 WND 31040/1044 SNE00B17E20 SLP038 P0000 T10171106 =
2018-12-18 04:53 METAR KACK 180953Z AUTO 29020G30KT 9SM -SN OVC035 01/M08 A2960 RMK AO2 PK WND
                 31034/0854 SNB20 SLP022 P0000 T00061078 =
2018-12-18 03:53 METAR KACK 180853Z AUTO 31023G33KT 10SM SCT045 BKN070 OVC085 01/M07 A2957 RMK
                 AO2 PK WND 29035/0826 SNE06 SLP014 P0000 60000 T00111067 53010 =
2018-12-18 03:08 METAR KACK 180808Z AUTO 29020G24KT 9SM SCT018 BKN037 OVC095 01/M03 A2957 RMK AO2
                 PK WND 30033/0754 SNE06 P0000 T00061033 =
2018-12-18 03:01 METAR KACK 180801Z AUTO 30018G33KT 2 1/2SM -SN SCT016 BKN040 OVC095 00/M03 A2957
                 RMK AO2 PK WND 30033/0754 P0000 T00001033 =
2018-12-18 02:53 METAR KACK 180753Z AUTO 30024G36KT 1 1/4SM -SN BR BKN018 BKN038 OVC090 00/M02
                 A2957 RMK AO2 PK WND 28038/0741 SNB44 SLP014 P0000 T00001017 =
2018-12-18 02:51 METAR KACK 180751Z AUTO 30024G36KT 1 3/4SM -SN BR SCT020 BKN038 OVC095 01/M02
                 A2957 RMK AO2 PK WND 28038/0741 SNB44 P0000 =
2018-12-18 01:53 METAR KACK 180653Z AUTO 28021G31KT 10SM BKN080 OVC090 04/M02 A2954 RMK AO2 PK
                 WND 28032/0630 SLP004 T00391022 =
2018-12-18 00:53 METAR KACK 180553Z AUTO 28020G27KT 10SM OVC085 04/M02 A2954 RMK AO2 PK WND
                 28027/0528 SLP004 T00391022 10050 20033 57011 =

Support USWX by starting your Amazon purchase here.